sensor_id;sensor_type;location;lat;lon;timestamp;pressure;altitude;pressure_sealevel;temperature;humidity
14689;BME280;7432;48.728;9.154;2023-11-18T00:02:06;143106.81;;;5.13;100.00
14689;BME280;7432;48.728;9.154;2023-11-18T00:04:33;143109.19;;;5.14;100.00
14689;BME280;7432;48.728;9.154;2023-11-18T00:07:00;143116.44;;;5.17;100.00
14689;BME280;7432;48.728;9.154;2023-11-18T00:09:29;143123.66;;;5.20;100.00
14689;BME280;7432;48.728;9.154;2023-11-18T00:11:56;143127.31;;;5.21;100.00
14689;BME280;7432;48.728;9.154;2023-11-18T00:14:22;143120.06;;;5.18;100.00
14689;BME280;7432;48.728;9.154;2023-11-18T00:16:49;143124.88;;;5.20;100.00
14689;BME280;7432;48.728;9.154;2023-11-18T00:19:15;143134.53;;;5.24;100.00
14689;BME280;7432;48.728;9.154;2023-11-18T00:21:42;143126.09;;;5.21;100.00
14689;BME280;7432;48.728;9.154;2023-11-18T00:24:10;143118.84;;;5.18;100.00
14689;BME280;7432;48.728;9.154;2023-11-18T00:26:39;143099.59;;;5.10;100.00
14689;BME280;7432;48.728;9.154;2023-11-18T00:29:06;143092.34;;;5.07;100.00
14689;BME280;7432;48.728;9.154;2023-11-18T00:31:32;143089.94;;;5.06;100.00
14689;BME280;7432;48.728;9.154;2023-11-18T00:33:59;143102.00;;;5.11;100.00
14689;BME280;7432;48.728;9.154;2023-11-18T00:36:25;143100.78;;;5.10;100.00
14689;BME280;7432;48.728;9.154;2023-11-18T00:38:52;143105.59;;;5.12;100.00
14689;BME280;7432;48.728;9.154;2023-11-18T00:41:19;143093.56;;;5.07;100.00
14689;BME280;7432;48.728;9.154;2023-11-18T00:43:46;143097.16;;;5.09;100.00
14689;BME280;7432;48.728;9.154;2023-11-18T00:46:12;143099.59;;;5.10;100.00
14689;BME280;7432;48.728;9.154;2023-11-18T00:48:39;143097.16;;;5.09;100.00
14689;BME280;7432;48.728;9.154;2023-11-18T00:51:05;143115.25;;;5.16;100.00
14689;BME280;7432;48.728;9.154;2023-11-18T00:53:32;143112.84;;;5.15;100.00
14689;BME280;7432;48.728;9.154;2023-11-18T00:55:59;143127.31;;;5.21;100.00
14689;BME280;7432;48.728;9.154;2023-11-18T00:58:27;143139.34;;;5.26;100.00
14689;BME280;7432;48.728;9.154;2023-11-18T01:00:54;143153.81;;;5.32;100.00
14689;BME280;7432;48.728;9.154;2023-11-18T01:03:20;143141.72;;;5.27;100.00
14689;BME280;7432;48.728;9.154;2023-11-18T01:05:46;143127.31;;;5.21;100.00
14689;BME280;7432;48.728;9.154;2023-11-18T01:08:13;143129.69;;;5.22;100.00
14689;BME280;7432;48.728;9.154;2023-11-18T01:10:39;143118.84;;;5.18;100.00
14689;BME280;7432;48.728;9.154;2023-11-18T01:13:05;143136.91;;;5.25;100.00
14689;BME280;7432;48.728;9.154;2023-11-18T01:15:33;143135.69;;;5.25;100.00
14689;BME280;7432;48.728;9.154;2023-11-18T01:18:00;143135.69;;;5.25;100.00
14689;BME280;7432;48.728;9.154;2023-11-18T01:20:26;143121.28;;;5.19;100.00
14689;BME280;7432;48.728;9.154;2023-11-18T01:22:52;143124.88;;;5.20;100.00
14689;BME280;7432;48.728;9.154;2023-11-18T01:25:19;143136.91;;;5.25;100.00
14689;BME280;7432;48.728;9.154;2023-11-18T01:27:45;143122.44;;;5.19;100.00
14689;BME280;7432;48.728;9.154;2023-11-18T01:30:12;143128.47;;;5.22;100.00
14689;BME280;7432;48.728;9.154;2023-11-18T01:32:40;143121.28;;;5.19;100.00
14689;BME280;7432;48.728;9.154;2023-11-18T01:35:07;143140.56;;;5.27;100.00
14689;BME280;7432;48.728;9.154;2023-11-18T01:37:36;143136.91;;;5.25;100.00
14689;BME280;7432;48.728;9.154;2023-11-18T01:40:02;143140.56;;;5.27;100.00
14689;BME280;7432;48.728;9.154;2023-11-18T01:42:32;143123.66;;;5.20;100.00
14689;BME280;7432;48.728;9.154;2023-11-18T01:44:58;143140.56;;;5.27;100.00
14689;BME280;7432;48.728;9.154;2023-11-18T01:47:28;143139.34;;;5.26;100.00
14689;BME280;7432;48.728;9.154;2023-11-18T01:49:59;143127.31;;;5.21;100.00
14689;BME280;7432;48.728;9.154;2023-11-18T01:52:26;143145.38;;;5.29;100.00
14689;BME280;7432;48.728;9.154;2023-11-18T01:54:54;143136.91;;;5.25;100.00
14689;BME280;7432;48.728;9.154;2023-11-18T01:57:20;143141.72;;;5.27;100.00
14689;BME280;7432;48.728;9.154;2023-11-18T01:59:47;143128.47;;;5.22;100.00
14689;BME280;7432;48.728;9.154;2023-11-18T02:02:13;143124.88;;;5.20;100.00
14689;BME280;7432;48.728;9.154;2023-11-18T02:04:40;143129.69;;;5.22;100.00
14689;BME280;7432;48.728;9.154;2023-11-18T02:07:07;143114.03;;;5.16;100.00
14689;BME280;7432;48.728;9.154;2023-11-18T02:09:35;143111.63;;;5.15;100.00
14689;BME280;7432;48.728;9.154;2023-11-18T02:12:09;143120.06;;;5.18;100.00
14689;BME280;7432;48.728;9.154;2023-11-18T02:14:43;143116.44;;;5.17;100.00
14689;BME280;7432;48.728;9.154;2023-11-18T02:17:13;143116.44;;;5.17;100.00
14689;BME280;7432;48.728;9.154;2023-11-18T02:19:41;143129.69;;;5.22;100.00
14689;BME280;7432;48.728;9.154;2023-11-18T02:22:10;143112.84;;;5.15;100.00
14689;BME280;7432;48.728;9.154;2023-11-18T02:24:37;143127.31;;;5.21;100.00
14689;BME280;7432;48.728;9.154;2023-11-18T02:27:07;143106.81;;;5.13;100.00
14689;BME280;7432;48.728;9.154;2023-11-18T02:29:38;143103.19;;;5.11;100.00
14689;BME280;7432;48.728;9.154;2023-11-18T02:32:11;143100.78;;;5.10;100.00
14689;BME280;7432;48.728;9.154;2023-11-18T02:34:45;143095.94;;;5.08;100.00
14689;BME280;7432;48.728;9.154;2023-11-18T02:37:16;143105.59;;;5.12;100.00
14689;BME280;7432;48.728;9.154;2023-11-18T02:39:45;143120.06;;;5.18;100.00
14689;BME280;7432;48.728;9.154;2023-11-18T02:42:16;143103.19;;;5.11;100.00
14689;BME280;7432;48.728;9.154;2023-11-18T02:44:43;143120.06;;;5.18;100.00
14689;BME280;7432;48.728;9.154;2023-11-18T02:47:10;143115.25;;;5.16;100.00
14689;BME280;7432;48.728;9.154;2023-11-18T02:49:37;143117.63;;;5.17;100.00
14689;BME280;7432;48.728;9.154;2023-11-18T02:52:04;143106.81;;;5.13;100.00
14689;BME280;7432;48.728;9.154;2023-11-18T02:54:31;143099.59;;;5.10;100.00
14689;BME280;7432;48.728;9.154;2023-11-18T02:56:57;143087.53;;;5.05;100.00
14689;BME280;7432;48.728;9.154;2023-11-18T02:59:25;143055.03;;;4.91;100.00
14689;BME280;7432;48.728;9.154;2023-11-18T03:01:55;143032.13;;;4.82;100.00
14689;BME280;7432;48.728;9.154;2023-11-18T03:04:21;143002.03;;;4.69;100.00
14689;BME280;7432;48.728;9.154;2023-11-18T03:06:49;142973.09;;;4.57;100.00
14689;BME280;7432;48.728;9.154;2023-11-18T03:09:15;142928.56;;;4.38;100.00
14689;BME280;7432;48.728;9.154;2023-11-18T03:11:41;142897.28;;;4.25;100.00
14689;BME280;7432;48.728;9.154;2023-11-18T03:14:09;142878.03;;;4.17;100.00
14689;BME280;7432;48.728;9.154;2023-11-18T03:16:37;142860.00;;;4.09;100.00
14689;BME280;7432;48.728;9.154;2023-11-18T03:19:04;142838.31;;;4.00;100.00
14689;BME280;7432;48.728;9.154;2023-11-18T03:21:32;142831.09;;;3.97;100.00
14689;BME280;7432;48.728;9.154;2023-11-18T03:23:58;142827.50;;;3.96;100.00
14689;BME280;7432;48.728;9.154;2023-11-18T03:26:24;142808.25;;;3.88;100.00
14689;BME280;7432;48.728;9.154;2023-11-18T03:28:52;142792.59;;;3.81;100.00
14689;BME280;7432;48.728;9.154;2023-11-18T03:31:18;142767.31;;;3.71;100.00
14689;BME280;7432;48.728;9.154;2023-11-18T03:33:46;142737.22;;;3.58;100.00
14689;BME280;7432;48.728;9.154;2023-11-18T03:36:12;142761.31;;;3.68;100.00
14689;BME280;7432;48.728;9.154;2023-11-18T03:38:39;142737.22;;;3.58;100.00
14689;BME280;7432;48.728;9.154;2023-11-18T03:41:05;142723.97;;;3.52;100.00
14689;BME280;7432;48.728;9.154;2023-11-18T03:43:33;142732.41;;;3.56;100.00
14689;BME280;7432;48.728;9.154;2023-11-18T03:45:59;142767.31;;;3.71;100.00
14689;BME280;7432;48.728;9.154;2023-11-18T03:48:26;142787.78;;;3.79;100.00
14689;BME280;7432;48.728;9.154;2023-11-18T03:50:54;142792.59;;;3.81;100.00
14689;BME280;7432;48.728;9.154;2023-11-18T03:53:20;142792.59;;;3.81;100.00
14689;BME280;7432;48.728;9.154;2023-11-18T03:55:46;142802.19;;;3.85;100.00
14689;BME280;7432;48.728;9.154;2023-11-18T03:58:13;142790.16;;;3.80;100.00
14689;BME280;7432;48.728;9.154;2023-11-18T04:00:39;142801.00;;;3.85;100.00
14689;BME280;7432;48.728;9.154;2023-11-18T04:03:05;142791.38;;;3.81;100.00
14689;BME280;7432;48.728;9.154;2023-11-18T04:05:33;142779.34;;;3.76;100.00
14689;BME280;7432;48.728;9.154;2023-11-18T04:08:01;142754.09;;;3.65;100.00
14689;BME280;7432;48.728;9.154;2023-11-18T04:10:27;142754.09;;;3.65;100.00
14689;BME280;7432;48.728;9.154;2023-11-18T04:12:53;142739.63;;;3.59;100.00
14689;BME280;7432;48.728;9.154;2023-11-18T04:15:20;142737.22;;;3.58;100.00
14689;BME280;7432;48.728;9.154;2023-11-18T04:17:47;142733.63;;;3.56;100.00
14689;BME280;7432;48.728;9.154;2023-11-18T04:20:13;142715.59;;;3.49;100.00
14689;BME280;7432;48.728;9.154;2023-11-18T04:22:41;142709.59;;;3.46;100.00
14689;BME280;7432;48.728;9.154;2023-11-18T04:25:09;142715.59;;;3.49;100.00
14689;BME280;7432;48.728;9.154;2023-11-18T04:27:36;142726.41;;;3.53;100.00
14689;BME280;7432;48.728;9.154;2023-11-18T04:30:03;142728.81;;;3.54;100.00
14689;BME280;7432;48.728;9.154;2023-11-18T04:32:30;142701.16;;;3.43;100.00
14689;BME280;7432;48.728;9.154;2023-11-18T04:34:58;142730.03;;;3.55;100.00
14689;BME280;7432;48.728;9.154;2023-11-18T04:37:24;142723.97;;;3.52;100.00
14689;BME280;7432;48.728;9.154;2023-11-18T04:39:51;142733.63;;;3.56;100.00
14689;BME280;7432;48.728;9.154;2023-11-18T04:42:21;142734.84;;;3.57;100.00
14689;BME280;7432;48.728;9.154;2023-11-18T04:44:48;142734.84;;;3.57;100.00
14689;BME280;7432;48.728;9.154;2023-11-18T04:47:15;142750.44;;;3.64;100.00
14689;BME280;7432;48.728;9.154;2023-11-18T04:49:43;142749.28;;;3.63;100.00
14689;BME280;7432;48.728;9.154;2023-11-18T04:52:10;142740.84;;;3.59;100.00
14689;BME280;7432;48.728;9.154;2023-11-18T04:54:36;142758.88;;;3.67;100.00
14689;BME280;7432;48.728;9.154;2023-11-18T04:57:03;142768.53;;;3.71;100.00
14689;BME280;7432;48.728;9.154;2023-11-18T04:59:30;142763.69;;;3.69;100.00
14689;BME280;7432;48.728;9.154;2023-11-18T05:01:57;142791.38;;;3.81;100.00
14689;BME280;7432;48.728;9.154;2023-11-18T05:04:23;142815.41;;;3.91;100.00
14689;BME280;7432;48.728;9.154;2023-11-18T05:06:50;142822.66;;;3.94;100.00
14689;BME280;7432;48.728;9.154;2023-11-18T05:09:16;142823.84;;;3.94;100.00
14689;BME280;7432;48.728;9.154;2023-11-18T05:11:43;142827.50;;;3.96;100.00
14689;BME280;7432;48.728;9.154;2023-11-18T05:14:10;142831.09;;;3.97;100.00
14689;BME280;7432;48.728;9.154;2023-11-18T05:16:37;142817.84;;;3.92;100.00
14689;BME280;7432;48.728;9.154;2023-11-18T05:19:04;142809.41;;;3.88;100.00
14689;BME280;7432;48.728;9.154;2023-11-18T05:21:30;142813.03;;;3.90;100.00
14689;BME280;7432;48.728;9.154;2023-11-18T05:23:57;142808.25;;;3.88;100.00
14689;BME280;7432;48.728;9.154;2023-11-18T05:26:23;142807.03;;;3.87;100.00
14689;BME280;7432;48.728;9.154;2023-11-18T05:28:49;142809.41;;;3.88;100.00
14689;BME280;7432;48.728;9.154;2023-11-18T05:31:16;142817.84;;;3.92;100.00
14689;BME280;7432;48.728;9.154;2023-11-18T05:33:44;142814.25;;;3.90;100.00
14689;BME280;7432;48.728;9.154;2023-11-18T05:36:16;142829.88;;;3.97;100.00
14689;BME280;7432;48.728;9.154;2023-11-18T05:38:51;142828.66;;;3.96;100.00
14689;BME280;7432;48.728;9.154;2023-11-18T05:41:19;142838.31;;;4.00;100.00
14689;BME280;7432;48.728;9.154;2023-11-18T05:43:53;142816.63;;;3.91;100.00
14689;BME280;7432;48.728;9.154;2023-11-18T05:46:22;142823.84;;;3.94;100.00
14689;BME280;7432;48.728;9.154;2023-11-18T05:48:51;142817.84;;;3.92;100.00
14689;BME280;7432;48.728;9.154;2023-11-18T05:51:19;142825.06;;;3.95;100.00
14689;BME280;7432;48.728;9.154;2023-11-18T05:53:47;142823.84;;;3.94;100.00
14689;BME280;7432;48.728;9.154;2023-11-18T05:56:13;142825.06;;;3.95;100.00
14689;BME280;7432;48.728;9.154;2023-11-18T05:58:42;142822.66;;;3.94;100.00
14689;BME280;7432;48.728;9.154;2023-11-18T06:01:08;142813.03;;;3.90;100.00
14689;BME280;7432;48.728;9.154;2023-11-18T06:03:36;142813.03;;;3.90;100.00
14689;BME280;7432;48.728;9.154;2023-11-18T06:06:06;142797.38;;;3.83;100.00
14689;BME280;7432;48.728;9.154;2023-11-18T06:08:33;142791.38;;;3.81;100.00
14689;BME280;7432;48.728;9.154;2023-11-18T06:10:59;142769.69;;;3.72;100.00
14689;BME280;7432;48.728;9.154;2023-11-18T06:13:30;142761.31;;;3.68;100.00
14689;BME280;7432;48.728;9.154;2023-11-18T06:15:57;142739.63;;;3.59;100.00
14689;BME280;7432;48.728;9.154;2023-11-18T06:18:24;142733.63;;;3.56;100.00
14689;BME280;7432;48.728;9.154;2023-11-18T06:20:50;142720.38;;;3.51;100.00
14689;BME280;7432;48.728;9.154;2023-11-18T06:23:18;142716.81;;;3.49;100.00
14689;BME280;7432;48.728;9.154;2023-11-18T06:25:46;142689.13;;;3.38;100.00
14689;BME280;7432;48.728;9.154;2023-11-18T06:28:13;142683.13;;;3.35;100.00
14689;BME280;7432;48.728;9.154;2023-11-18T06:30:40;142689.13;;;3.38;100.00
14689;BME280;7432;48.728;9.154;2023-11-18T06:33:06;142679.47;;;3.34;100.00
14689;BME280;7432;48.728;9.154;2023-11-18T06:35:33;142678.28;;;3.33;100.00
14689;BME280;7432;48.728;9.154;2023-11-18T06:38:00;142673.47;;;3.31;100.00
14689;BME280;7432;48.728;9.154;2023-11-18T06:40:29;142679.47;;;3.34;100.00
14689;BME280;7432;48.728;9.154;2023-11-18T06:42:55;142668.66;;;3.29;100.00
14689;BME280;7432;48.728;9.154;2023-11-18T06:45:27;142686.69;;;3.37;100.00
14689;BME280;7432;48.728;9.154;2023-11-18T06:47:57;142673.47;;;3.31;100.00
14689;BME280;7432;48.728;9.154;2023-11-18T06:50:23;142680.69;;;3.34;100.00
14689;BME280;7432;48.728;9.154;2023-11-18T06:52:52;142672.25;;;3.31;100.00
14689;BME280;7432;48.728;9.154;2023-11-18T06:55:18;142674.69;;;3.32;100.00
14689;BME280;7432;48.728;9.154;2023-11-18T06:57:46;142673.47;;;3.31;100.00
14689;BME280;7432;48.728;9.154;2023-11-18T07:00:13;142673.47;;;3.31;100.00
14689;BME280;7432;48.728;9.154;2023-11-18T07:02:40;142677.09;;;3.33;100.00
14689;BME280;7432;48.728;9.154;2023-11-18T07:05:07;142691.50;;;3.39;100.00
14689;BME280;7432;48.728;9.154;2023-11-18T07:07:34;142708.38;;;3.46;100.00
14689;BME280;7432;48.728;9.154;2023-11-18T07:10:00;142739.63;;;3.59;100.00
14689;BME280;7432;48.728;9.154;2023-11-18T07:12:26;142784.16;;;3.78;100.00
14689;BME280;7432;48.728;9.154;2023-11-18T07:14:54;142805.81;;;3.87;100.00
14689;BME280;7432;48.728;9.154;2023-11-18T07:17:21;142847.91;;;4.04;100.00
14689;BME280;7432;48.728;9.154;2023-11-18T07:19:47;142897.28;;;4.25;100.00
14689;BME280;7432;48.728;9.154;2023-11-18T07:22:14;142935.81;;;4.41;100.00
14689;BME280;7432;48.728;9.154;2023-11-18T07:24:40;142996.00;;;4.66;100.00
14689;BME280;7432;48.728;9.154;2023-11-18T07:27:08;143045.38;;;4.87;100.00
14689;BME280;7432;48.728;9.154;2023-11-18T07:29:36;143109.19;;;5.14;100.00
14689;BME280;7432;48.728;9.154;2023-11-18T07:32:04;143179.09;;;5.43;100.00
14689;BME280;7432;48.728;9.154;2023-11-18T07:34:31;143318.94;;;6.02;100.00
14689;BME280;7432;48.728;9.154;2023-11-18T07:36:58;143662.75;;;7.45;97.76
14689;BME280;7432;48.728;9.154;2023-11-18T07:39:25;143957.44;;;8.68;90.60
14689;BME280;7432;48.728;9.154;2023-11-18T07:42:09;144239.09;;;9.86;83.48
14689;BME280;7432;48.728;9.154;2023-11-18T07:44:35;144364.91;;;10.38;78.56
14689;BME280;7432;48.728;9.154;2023-11-18T07:47:01;144419.38;;;10.61;76.21
14689;BME280;7432;48.728;9.154;2023-11-18T07:49:30;144485.97;;;10.89;75.34
14689;BME280;7432;48.728;9.154;2023-11-18T07:51:57;144531.97;;;11.08;72.21
14689;BME280;7432;48.728;9.154;2023-11-18T07:54:23;144527.13;;;11.06;72.41
14689;BME280;7432;48.728;9.154;2023-11-18T07:56:50;144450.84;;;10.74;71.79
14689;BME280;7432;48.728;9.154;2023-11-18T07:59:17;144268.09;;;9.98;73.40
14689;BME280;7432;48.728;9.154;2023-11-18T08:01:44;144196.75;;;9.68;75.77
14689;BME280;7432;48.728;9.154;2023-11-18T08:04:11;144092.78;;;9.25;77.22
14689;BME280;7432;48.728;9.154;2023-11-18T08:06:40;144069.84;;;9.15;77.90
14689;BME280;7432;48.728;9.154;2023-11-18T08:09:08;144052.91;;;9.08;78.88
14689;BME280;7432;48.728;9.154;2023-11-18T08:11:38;144009.41;;;8.90;79.39
14689;BME280;7432;48.728;9.154;2023-11-18T08:14:06;143978.00;;;8.77;81.03
14689;BME280;7432;48.728;9.154;2023-11-18T08:16:33;143918.78;;;8.52;81.90
14689;BME280;7432;48.728;9.154;2023-11-18T08:19:00;143875.28;;;8.34;81.25
14689;BME280;7432;48.728;9.154;2023-11-18T08:21:27;143812.44;;;8.08;84.01
14689;BME280;7432;48.728;9.154;2023-11-18T08:23:55;143698.94;;;7.60;85.32
14689;BME280;7432;48.728;9.154;2023-11-18T08:26:24;143631.38;;;7.32;85.82
14689;BME280;7432;48.728;9.154;2023-11-18T08:28:50;143607.22;;;7.22;87.90
14689;BME280;7432;48.728;9.154;2023-11-18T08:31:17;143583.09;;;7.12;88.89
14689;BME280;7432;48.728;9.154;2023-11-18T08:33:43;143515.50;;;6.84;89.59
14689;BME280;7432;48.728;9.154;2023-11-18T08:36:10;143517.94;;;6.85;90.40
14689;BME280;7432;48.728;9.154;2023-11-18T08:38:37;143503.44;;;6.79;90.25
14689;BME280;7432;48.728;9.154;2023-11-18T08:41:06;143501.03;;;6.78;91.98
14689;BME280;7432;48.728;9.154;2023-11-18T08:43:34;143504.66;;;6.79;90.99
14689;BME280;7432;48.728;9.154;2023-11-18T08:46:00;143493.81;;;6.75;90.12
14689;BME280;7432;48.728;9.154;2023-11-18T08:48:27;143487.75;;;6.72;91.40
14689;BME280;7432;48.728;9.154;2023-11-18T08:50:53;143530.00;;;6.90;91.93
14689;BME280;7432;48.728;9.154;2023-11-18T08:53:20;143523.97;;;6.87;90.91
14689;BME280;7432;48.728;9.154;2023-11-18T08:55:51;143571.03;;;7.07;90.90
14689;BME280;7432;48.728;9.154;2023-11-18T08:58:20;143580.66;;;7.11;90.95
14689;BME280;7432;48.728;9.154;2023-11-18T09:00:49;143615.66;;;7.26;90.19
14689;BME280;7432;48.728;9.154;2023-11-18T09:03:19;143645.81;;;7.38;89.01
14689;BME280;7432;48.728;9.154;2023-11-18T09:05:51;143672.38;;;7.49;87.91
14689;BME280;7432;48.728;9.154;2023-11-18T09:08:25;143708.63;;;7.64;88.34
14689;BME280;7432;48.728;9.154;2023-11-18T09:10:52;143732.75;;;7.74;87.74
14689;BME280;7432;48.728;9.154;2023-11-18T09:13:21;143738.78;;;7.77;87.62
14689;BME280;7432;48.728;9.154;2023-11-18T09:15:48;143750.84;;;7.82;85.45
14689;BME280;7432;48.728;9.154;2023-11-18T09:18:15;143712.22;;;7.66;86.39
14689;BME280;7432;48.728;9.154;2023-11-18T09:20:43;143750.84;;;7.82;85.99
14689;BME280;7432;48.728;9.154;2023-11-18T09:23:10;143754.50;;;7.84;85.58
14689;BME280;7432;48.728;9.154;2023-11-18T09:25:37;143724.28;;;7.71;85.67
14689;BME280;7432;48.728;9.154;2023-11-18T09:28:05;143673.59;;;7.50;86.43
14689;BME280;7432;48.728;9.154;2023-11-18T09:30:37;143709.81;;;7.65;87.00
14689;BME280;7432;48.728;9.154;2023-11-18T09:33:15;143759.31;;;7.86;85.99
14689;BME280;7432;48.728;9.154;2023-11-18T09:35:51;143797.94;;;8.02;85.26
14689;BME280;7432;48.728;9.154;2023-11-18T09:38:17;143823.31;;;8.12;84.03
14689;BME280;7432;48.728;9.154;2023-11-18T09:40:44;143843.84;;;8.21;83.72
14689;BME280;7432;48.728;9.154;2023-11-18T09:43:13;143880.09;;;8.36;83.74
14689;BME280;7432;48.728;9.154;2023-11-18T09:45:43;143913.94;;;8.50;83.48
14689;BME280;7432;48.728;9.154;2023-11-18T09:48:13;143924.84;;;8.55;83.73
14689;BME280;7432;48.728;9.154;2023-11-18T09:50:43;143930.88;;;8.57;84.47
14689;BME280;7432;48.728;9.154;2023-11-18T09:53:12;143899.47;;;8.44;83.32
14689;BME280;7432;48.728;9.154;2023-11-18T09:55:45;143893.38;;;8.42;82.17
14689;BME280;7432;48.728;9.154;2023-11-18T09:58:15;143894.59;;;8.42;83.21
14689;BME280;7432;48.728;9.154;2023-11-18T10:00:50;143918.78;;;8.52;83.63
14689;BME280;7432;48.728;9.154;2023-11-18T10:03:23;143942.94;;;8.62;82.92
14689;BME280;7432;48.728;9.154;2023-11-18T10:05:51;143953.81;;;8.67;82.62
14689;BME280;7432;48.728;9.154;2023-11-18T10:08:20;143946.53;;;8.64;82.79
14689;BME280;7432;48.728;9.154;2023-11-18T10:10:51;143952.59;;;8.66;81.24
14689;BME280;7432;48.728;9.154;2023-11-18T10:13:30;143994.91;;;8.84;81.71
14689;BME280;7432;48.728;9.154;2023-11-18T10:15:57;144002.16;;;8.87;81.73
14689;BME280;7432;48.728;9.154;2023-11-18T10:18:25;144034.78;;;9.01;81.81
14689;BME280;7432;48.728;9.154;2023-11-18T10:20:53;144056.56;;;9.10;80.83
14689;BME280;7432;48.728;9.154;2023-11-18T10:23:21;144021.47;;;8.95;80.08
14689;BME280;7432;48.728;9.154;2023-11-18T10:25:49;144050.47;;;9.07;81.01
14689;BME280;7432;48.728;9.154;2023-11-18T10:28:21;144075.88;;;9.18;80.46
14689;BME280;7432;48.728;9.154;2023-11-18T10:30:48;144078.28;;;9.19;81.28
14689;BME280;7432;48.728;9.154;2023-11-18T10:33:17;144073.44;;;9.17;81.03
14689;BME280;7432;48.728;9.154;2023-11-18T10:35:50;144069.84;;;9.15;81.66
14689;BME280;7432;48.728;9.154;2023-11-18T10:38:18;144086.75;;;9.22;82.88
14689;BME280;7432;48.728;9.154;2023-11-18T10:40:44;144095.22;;;9.26;83.39
14689;BME280;7432;48.728;9.154;2023-11-18T10:43:11;144102.47;;;9.29;82.16
14689;BME280;7432;48.728;9.154;2023-11-18T10:45:37;144048.06;;;9.06;79.92
14689;BME280;7432;48.728;9.154;2023-11-18T10:48:06;144058.94;;;9.11;80.63
14689;BME280;7432;48.728;9.154;2023-11-18T10:50:33;144087.97;;;9.23;81.26
14689;BME280;7432;48.728;9.154;2023-11-18T10:53:01;144096.41;;;9.26;81.77
14689;BME280;7432;48.728;9.154;2023-11-18T10:55:35;144119.38;;;9.36;80.36
14689;BME280;7432;48.728;9.154;2023-11-18T10:58:02;144114.56;;;9.34;79.62
14689;BME280;7432;48.728;9.154;2023-11-18T11:00:29;144083.09;;;9.21;78.17
14689;BME280;7432;48.728;9.154;2023-11-18T11:02:59;144073.44;;;9.17;78.73
14689;BME280;7432;48.728;9.154;2023-11-18T11:05:28;144068.63;;;9.15;78.94
14689;BME280;7432;48.728;9.154;2023-11-18T11:07:59;144079.50;;;9.19;79.77
14689;BME280;7432;48.728;9.154;2023-11-18T11:10:28;144089.19;;;9.23;80.69
14689;BME280;7432;48.728;9.154;2023-11-18T11:12:55;144090.34;;;9.24;81.43
14689;BME280;7432;48.728;9.154;2023-11-18T11:15:29;144103.66;;;9.29;81.58
14689;BME280;7432;48.728;9.154;2023-11-18T11:18:02;144115.72;;;9.34;81.87
14689;BME280;7432;48.728;9.154;2023-11-18T11:20:34;144081.94;;;9.20;81.55
14689;BME280;7432;48.728;9.154;2023-11-18T11:23:13;144085.53;;;9.22;81.30
14689;BME280;7432;48.728;9.154;2023-11-18T11:25:52;144100.03;;;9.28;82.16
14689;BME280;7432;48.728;9.154;2023-11-18T11:28:22;144077.06;;;9.18;82.78
14689;BME280;7432;48.728;9.154;2023-11-18T11:30:55;144097.63;;;9.27;82.48
14689;BME280;7432;48.728;9.154;2023-11-18T11:33:25;144095.22;;;9.26;82.47
14689;BME280;7432;48.728;9.154;2023-11-18T11:35:59;144091.56;;;9.24;81.29
14689;BME280;7432;48.728;9.154;2023-11-18T11:38:31;144049.28;;;9.07;82.44
14689;BME280;7432;48.728;9.154;2023-11-18T11:41:00;144039.59;;;9.03;83.22
14689;BME280;7432;48.728;9.154;2023-11-18T11:43:29;144073.44;;;9.17;82.92
14689;BME280;7432;48.728;9.154;2023-11-18T11:46:00;144087.97;;;9.23;82.13
14689;BME280;7432;48.728;9.154;2023-11-18T11:48:29;144075.88;;;9.18;83.27
14689;BME280;7432;48.728;9.154;2023-11-18T11:51:13;144055.34;;;9.09;81.89
14689;BME280;7432;48.728;9.154;2023-11-18T11:53:49;144048.06;;;9.06;82.60
14689;BME280;7432;48.728;9.154;2023-11-18T11:56:18;144039.59;;;9.03;82.14
14689;BME280;7432;48.728;9.154;2023-11-18T11:58:49;144027.53;;;8.98;82.47
14689;BME280;7432;48.728;9.154;2023-11-18T12:01:32;143969.53;;;8.73;79.68
14689;BME280;7432;48.728;9.154;2023-11-18T12:04:02;143998.50;;;8.85;83.00
14689;BME280;7432;48.728;9.154;2023-11-18T12:06:31;144008.19;;;8.89;81.93
14689;BME280;7432;48.728;9.154;2023-11-18T12:09:03;144011.78;;;8.91;83.38
14689;BME280;7432;48.728;9.154;2023-11-18T12:11:33;144017.84;;;8.93;82.76
14689;BME280;7432;48.728;9.154;2023-11-18T12:14:04;143996.13;;;8.84;82.75
14689;BME280;7432;48.728;9.154;2023-11-18T12:16:57;143968.31;;;8.73;81.78
14689;BME280;7432;48.728;9.154;2023-11-18T12:19:29;143975.56;;;8.76;82.69
14689;BME280;7432;48.728;9.154;2023-11-18T12:21:56;143962.28;;;8.70;83.79
14689;BME280;7432;48.728;9.154;2023-11-18T12:24:27;143953.81;;;8.67;83.82
14689;BME280;7432;48.728;9.154;2023-11-18T12:26:54;143964.72;;;8.71;84.58
14689;BME280;7432;48.728;9.154;2023-11-18T12:29:30;143958.63;;;8.69;81.82
14689;BME280;7432;48.728;9.154;2023-11-18T12:31:57;143935.69;;;8.59;80.96
14689;BME280;7432;48.728;9.154;2023-11-18T12:34:23;143935.69;;;8.59;81.50
14689;BME280;7432;48.728;9.154;2023-11-18T12:37:12;143932.09;;;8.58;80.07
14689;BME280;7432;48.728;9.154;2023-11-18T12:40:16;143924.84;;;8.55;78.57
14689;BME280;7432;48.728;9.154;2023-11-18T12:43:02;143913.94;;;8.50;79.66
14689;BME280;7432;48.728;9.154;2023-11-18T12:45:43;143910.31;;;8.49;82.72
14689;BME280;7432;48.728;9.154;2023-11-18T12:48:14;143901.84;;;8.45;82.42
14689;BME280;7432;48.728;9.154;2023-11-18T12:50:41;143882.53;;;8.37;81.95
14689;BME280;7432;48.728;9.154;2023-11-18T12:53:09;143888.56;;;8.40;83.73
14689;BME280;7432;48.728;9.154;2023-11-18T12:55:41;143884.97;;;8.38;83.68
14689;BME280;7432;48.728;9.154;2023-11-18T12:58:08;143863.22;;;8.29;84.35
14689;BME280;7432;48.728;9.154;2023-11-18T13:00:39;143855.91;;;8.26;84.70
14689;BME280;7432;48.728;9.154;2023-11-18T13:03:08;143859.59;;;8.27;83.27
14689;BME280;7432;48.728;9.154;2023-11-18T13:05:35;143829.34;;;8.15;83.32
14689;BME280;7432;48.728;9.154;2023-11-18T13:08:02;143817.25;;;8.10;85.49
14689;BME280;7432;48.728;9.154;2023-11-18T13:10:29;143799.16;;;8.02;85.03
14689;BME280;7432;48.728;9.154;2023-11-18T13:12:57;143784.66;;;7.96;86.66